N420NM KRAP-KRAP
Flight info
| Callsign | N420NM |
|---|---|
| Flight time | N/A |
| Altitude | 22000 |
| Route | IFR |
| Aircraft | C750/M-SBDE3FGHRWXY/S |
Departure
| Time | 2026-04-28 16:46 |
|---|---|
| Airport | Rapid City Regional Airport (KRAP) |
Arrival
| Time | N/A |
|---|---|
| Airport | Rapid City Regional Airport (KRAP) |
| Time | Latitude | Longitude | Altitude | Speed | Heading |
|---|---|---|---|---|---|
| 2026-04-28 16:24 | 44.04374 | -103.06052 | 3165 ft | 0 kts | 62° |
| 2026-04-28 16:43 | 44.04376 | -103.06046 | 3165 ft | 1 kts | 62° |
| 2026-04-28 16:43 | 44.04371 | -103.06033 | 3165 ft | 4 kts | 159° |
| 2026-04-28 16:43 | 44.04327 | -103.06005 | 3165 ft | 9 kts | 150° |
| 2026-04-28 16:43 | 44.04251 | -103.05949 | 3163 ft | 15 kts | 149° |
| 2026-04-28 16:44 | 44.04203 | -103.05824 | 3162 ft | 17 kts | 142° |
| 2026-04-28 16:44 | 44.04082 | -103.05730 | 3160 ft | 22 kts | 152° |
| 2026-04-28 16:44 | 44.03930 | -103.05618 | 3155 ft | 26 kts | 152° |
| 2026-04-28 16:44 | 44.03758 | -103.05490 | 3147 ft | 28 kts | 152° |
| 2026-04-28 16:45 | 44.03575 | -103.05356 | 3136 ft | 31 kts | 152° |
| 2026-04-28 16:45 | 44.03384 | -103.05212 | 3123 ft | 23 kts | 151° |
| 2026-04-28 16:45 | 44.03320 | -103.05077 | 3116 ft | 9 kts | 64° |
| 2026-04-28 16:45 | 44.03357 | -103.05007 | 3116 ft | 9 kts | 5° |
| 2026-04-28 16:46 | 44.03558 | -103.05148 | 3126 ft | 76 kts | 332° |
| 2026-04-28 16:46 | 44.04303 | -103.05700 | 3177 ft | 159 kts | 332° |
| 2026-04-28 16:46 | 44.05302 | -103.06453 | 4059 ft | 168 kts | 331° |
| 2026-04-28 16:46 | 44.06293 | -103.07195 | 5016 ft | 181 kts | 331° |
| 2026-04-28 16:47 | 44.07670 | -103.07794 | 4923 ft | 228 kts | 2° |
| 2026-04-28 16:47 | 44.09178 | -103.06968 | 4916 ft | 251 kts | 40° |
| 2026-04-28 16:47 | 44.10097 | -103.04850 | 4898 ft | 265 kts | 77° |
| 2026-04-28 16:47 | 44.09964 | -103.02326 | 4884 ft | 272 kts | 111° |
| 2026-04-28 16:48 | 44.08783 | -103.00249 | 4886 ft | 278 kts | 143° |
| 2026-04-28 16:48 | 44.07067 | -102.99032 | 4896 ft | 282 kts | 157° |
| 2026-04-28 16:48 | 44.05254 | -102.97965 | 4869 ft | 273 kts | 156° |
| 2026-04-28 16:48 | 44.03571 | -102.96975 | 4848 ft | 256 kts | 156° |
| 2026-04-28 16:49 | 44.01965 | -102.96034 | 4852 ft | 244 kts | 157° |
| 2026-04-28 16:49 | 44.00426 | -102.95132 | 4860 ft | 237 kts | 156° |
| 2026-04-28 16:49 | 43.98915 | -102.94249 | 4860 ft | 227 kts | 157° |
| 2026-04-28 16:49 | 43.97507 | -102.93473 | 4849 ft | 210 kts | 162° |
| 2026-04-28 16:50 | 43.96099 | -102.92996 | 4660 ft | 209 kts | 176° |
| 2026-04-28 16:50 | 43.94736 | -102.93575 | 4399 ft | 210 kts | 221° |
| 2026-04-28 16:50 | 43.94076 | -102.95280 | 4150 ft | 207 kts | 265° |
| 2026-04-28 16:50 | 43.94479 | -102.97123 | 3909 ft | 199 kts | 313° |
| 2026-04-28 16:51 | 43.95589 | -102.98031 | 3882 ft | 179 kts | 332° |
| 2026-04-28 16:51 | 43.96401 | -102.99171 | 3890 ft | 155 kts | 300° |
| 2026-04-28 16:51 | 43.97021 | -103.00357 | 3842 ft | 150 kts | 324° |
| 2026-04-28 16:51 | 43.97944 | -103.00955 | 3866 ft | 144 kts | 330° |
| 2026-04-28 16:52 | 43.98800 | -103.01627 | 3896 ft | 135 kts | 335° |
| 2026-04-28 16:52 | 43.99636 | -103.02239 | 3860 ft | 132 kts | 332° |
| 2026-04-28 16:52 | 44.00415 | -103.02811 | 3827 ft | 124 kts | 332° |
| 2026-04-28 16:52 | 44.01145 | -103.03355 | 3778 ft | 116 kts | 332° |
| 2026-04-28 16:53 | 44.01934 | -103.03843 | 3685 ft | 125 kts | 344° |
| 2026-04-28 16:53 | 44.02772 | -103.03962 | 3815 ft | 132 kts | 8° |
| 2026-04-28 16:53 | 44.03649 | -103.03437 | 4476 ft | 140 kts | 44° |
| 2026-04-28 16:53 | 44.04057 | -103.02371 | 5410 ft | 131 kts | 70° |
| 2026-04-28 16:54 | 44.04288 | -103.01127 | 6069 ft | 142 kts | 78° |
| 2026-04-28 16:54 | 44.04450 | -102.99563 | 6230 ft | 180 kts | 83° |
| 2026-04-28 16:54 | 44.04369 | -102.97710 | 6232 ft | 207 kts | 101° |
| 2026-04-28 16:54 | 44.03836 | -102.95738 | 6210 ft | 231 kts | 116° |
| 2026-04-28 16:55 | 44.02880 | -102.93883 | 6203 ft | 241 kts | 132° |
| 2026-04-28 16:55 | 44.01609 | -102.92325 | 6222 ft | 244 kts | 143° |
| 2026-04-28 16:55 | 44.00203 | -102.91025 | 6241 ft | 246 kts | 146° |
| 2026-04-28 16:55 | 43.98759 | -102.89931 | 5984 ft | 223 kts | 156° |
| 2026-04-28 16:56 | 43.97362 | -102.89481 | 5776 ft | 181 kts | 177° |
| 2026-04-28 16:56 | 43.96128 | -102.89681 | 5706 ft | 182 kts | 198° |
| 2026-04-28 16:56 | 43.95041 | -102.90427 | 5564 ft | 172 kts | 218° |
| 2026-04-28 16:56 | 43.94221 | -102.91617 | 5273 ft | 172 kts | 237° |
| 2026-04-28 16:57 | 43.93724 | -102.93120 | 4998 ft | 172 kts | 257° |
| 2026-04-28 16:57 | 43.93652 | -102.94727 | 4855 ft | 161 kts | 279° |
| 2026-04-28 16:57 | 43.94028 | -102.96220 | 4885 ft | 170 kts | 301° |
| 2026-04-28 16:57 | 43.94687 | -102.97680 | 4895 ft | 184 kts | 303° |
| 2026-04-28 16:58 | 43.95408 | -102.99057 | 4833 ft | 168 kts | 316° |
| 2026-04-28 16:58 | 43.96314 | -102.99927 | 4668 ft | 157 kts | 337° |
| 2026-04-28 16:58 | 43.97319 | -103.00513 | 4297 ft | 159 kts | 331° |
| 2026-04-28 16:58 | 43.98233 | -103.01386 | 3940 ft | 160 kts | 320° |
| 2026-04-28 16:59 | 43.99174 | -103.02134 | 3856 ft | 157 kts | 343° |
| 2026-04-28 16:59 | 44.00166 | -103.02520 | 3812 ft | 140 kts | 334° |
| 2026-04-28 16:59 | 44.00951 | -103.03244 | 3827 ft | 131 kts | 330° |